createdAt,value
2022-09-11T00:02:05.740Z,13.29
2022-09-11T00:04:45.827Z,13.28
2022-09-11T00:07:22.951Z,13.27
2022-09-11T00:09:59.764Z,13.28
2022-09-11T00:12:58.576Z,13.28
2022-09-11T00:15:45.915Z,13.28
2022-09-11T00:18:38.886Z,13.28
2022-09-11T00:21:42.250Z,13.29
2022-09-11T00:24:49.142Z,13.30
2022-09-11T00:29:26.449Z,13.29
2022-09-11T00:33:18.892Z,13.24
2022-09-11T00:41:13.800Z,13.13
2022-09-11T01:51:36.508Z,12.86
2022-09-11T02:03:30.723Z,12.80
2022-09-11T02:10:37.916Z,12.77
2022-09-11T02:18:11.915Z,12.76
2022-09-11T02:24:32.492Z,12.75
2022-09-11T02:25:29.318Z,12.75
2022-09-11T02:28:25.279Z,12.73
2022-09-11T02:32:09.184Z,12.71
2022-09-11T02:43:39.876Z,12.72
2022-09-11T02:47:11.559Z,12.74
2022-09-11T02:48:59.790Z,12.75
2022-09-11T02:52:51.097Z,12.75
2022-09-11T02:56:46.869Z,12.76
2022-09-11T03:00:31.010Z,12.75
2022-09-11T03:03:24.795Z,12.74
2022-09-11T03:06:44.694Z,12.75
2022-09-11T03:10:04.112Z,12.76
2022-09-11T03:12:53.352Z,12.77
2022-09-11T03:16:29.410Z,12.79
2022-09-11T03:19:23.715Z,12.80
2022-09-11T03:25:29.974Z,12.83
2022-09-11T03:28:15.349Z,12.83
2022-09-11T03:31:14.161Z,12.85
2022-09-11T03:34:13.434Z,12.87
2022-09-11T03:37:06.432Z,12.86
2022-09-11T03:40:23.021Z,12.84
2022-09-11T03:42:59.960Z,12.83
2022-09-11T03:46:14.703Z,12.83
2022-09-11T03:49:45.519Z,12.79
2022-09-11T03:52:37.869Z,12.78
2022-09-11T03:59:10.209Z,12.78
2022-09-11T04:02:17.386Z,12.77
2022-09-11T04:05:24.435Z,12.74
2022-09-11T04:08:34.350Z,12.72
2022-09-11T04:12:09.108Z,12.73
2022-09-11T04:15:52.585Z,12.72
2022-09-11T04:19:29.812Z,12.72
2022-09-11T04:22:40.719Z,12.73
2022-09-11T04:25:42.310Z,12.71
2022-09-11T04:28:43.236Z,12.70
2022-09-11T04:41:41.167Z,12.53
2022-09-11T04:44:49.057Z,12.51
2022-09-11T04:50:32.955Z,12.50
2022-09-11T04:53:14.922Z,12.48
2022-09-11T04:55:52.262Z,12.50
2022-09-11T04:59:06.443Z,12.51
2022-09-11T05:02:08.580Z,12.51
2022-09-11T05:05:11.850Z,12.53
2022-09-11T05:08:24.787Z,12.54
2022-09-11T05:11:48.334Z,12.52
2022-09-11T05:15:08.473Z,12.49
2022-09-11T05:18:29.445Z,12.48
2022-09-11T05:21:36.175Z,12.47
2022-09-11T05:24:55.803Z,12.48
2022-09-11T05:28:14.239Z,12.51
2022-09-11T05:31:44.635Z,12.49
2022-09-11T05:35:13.516Z,12.45
2022-09-11T05:38:11.044Z,12.48
2022-09-11T05:41:16.543Z,12.48
2022-09-11T05:44:03.830Z,12.54
2022-09-11T05:47:14.301Z,12.61
2022-09-11T05:50:15.629Z,12.61
2022-09-11T05:53:30.986Z,12.60
2022-09-11T05:56:29.915Z,12.65
2022-09-11T05:59:22.935Z,12.68
2022-09-11T06:03:15.527Z,12.68
2022-09-11T06:06:55.559Z,12.66
2022-09-11T06:10:05.416Z,12.73
2022-09-11T06:13:25.761Z,12.78
2022-09-11T06:16:31.861Z,12.81
2022-09-11T06:19:10.024Z,12.84
2022-09-11T06:21:54.599Z,12.88
2022-09-11T06:24:49.384Z,12.90
2022-09-11T06:27:42.722Z,12.93
2022-09-11T06:30:23.242Z,12.95
2022-09-11T06:33:10.097Z,12.96
2022-09-11T06:35:49.558Z,12.95
2022-09-11T06:38:30.929Z,12.99
2022-09-11T06:41:27.430Z,13.02
2022-09-11T06:44:36.747Z,13.07
2022-09-11T06:50:16.033Z,13.11
2022-09-11T06:52:52.532Z,13.15
2022-09-11T06:55:31.921Z,13.22
2022-09-11T06:58:03.935Z,13.28
2022-09-11T07:00:36.939Z,13.34
2022-09-11T07:03:05.981Z,13.38
2022-09-11T07:06:00.175Z,13.42
2022-09-11T07:08:29.079Z,13.49
2022-09-11T07:11:04.928Z,13.58
2022-09-11T07:13:37.431Z,13.61
2022-09-11T07:16:08.586Z,13.63
2022-09-11T07:18:43.778Z,13.71
2022-09-11T07:21:18.348Z,13.74
2022-09-11T07:23:50.058Z,13.76
2022-09-11T07:26:18.864Z,13.76
2022-09-11T07:29:03.002Z,13.73
2022-09-11T07:31:43.168Z,13.72
2022-09-11T07:34:13.378Z,13.76
2022-09-11T07:36:42.090Z,13.78
2022-09-11T07:39:13.011Z,13.72
2022-09-11T07:41:44.225Z,13.67
2022-09-11T07:44:20.806Z,13.65
2022-09-11T07:46:51.479Z,13.67
2022-09-11T07:49:19.746Z,13.69
2022-09-11T07:51:48.005Z,13.72
2022-09-11T07:54:22.694Z,13.73
2022-09-11T07:56:53.593Z,13.74
2022-09-11T07:59:25.456Z,13.70
2022-09-11T08:01:55.939Z,13.66
2022-09-11T08:04:24.243Z,13.67
2022-09-11T08:06:55.335Z,13.68
2022-09-11T08:09:27.595Z,13.69
2022-09-11T08:11:58.781Z,13.68
2022-09-11T08:14:48.019Z,13.72
2022-09-11T08:17:16.491Z,13.77
2022-09-11T08:19:47.632Z,13.82
2022-09-11T08:22:16.538Z,13.84
2022-09-11T08:24:45.043Z,13.81
2022-09-11T08:27:13.706Z,13.78
2022-09-11T08:29:42.245Z,13.77
2022-09-11T08:32:10.804Z,13.75
2022-09-11T08:34:42.455Z,13.77
2022-09-11T08:37:11.066Z,13.80
2022-09-11T08:39:40.121Z,13.82
2022-09-11T08:42:14.589Z,13.85
2022-09-11T08:44:54.498Z,13.83
2022-09-11T08:47:28.879Z,13.83
2022-09-11T08:50:27.071Z,13.85
2022-09-11T08:52:56.843Z,13.86
2022-09-11T08:55:36.881Z,13.85
2022-09-11T08:58:30.284Z,13.75
2022-09-11T09:01:20.222Z,13.72
2022-09-11T09:04:14.333Z,13.78
2022-09-11T09:06:57.327Z,13.80
2022-09-11T09:09:38.049Z,13.78
2022-09-11T09:12:50.227Z,13.76
2022-09-11T09:15:45.120Z,13.71
2022-09-11T09:18:31.921Z,13.70
2022-09-11T09:21:09.588Z,13.72
2022-09-11T09:23:50.776Z,13.75
2022-09-11T09:26:23.802Z,13.80
2022-09-11T09:28:58.800Z,13.82
2022-09-11T09:31:32.769Z,13.83
2022-09-11T09:34:33.719Z,13.84
2022-09-11T09:37:08.009Z,13.87
2022-09-11T09:39:39.683Z,13.85
2022-09-11T09:42:34.851Z,13.86
2022-09-11T09:45:20.263Z,13.88
2022-09-11T09:47:50.696Z,13.87
2022-09-11T09:50:33.738Z,13.87
2022-09-11T09:53:12.465Z,13.87
2022-09-11T09:55:47.778Z,13.87
2022-09-11T09:58:32.782Z,13.86
2022-09-11T10:01:04.995Z,13.82
2022-09-11T10:03:33.958Z,13.84
2022-09-11T10:06:03.088Z,13.87
2022-09-11T10:08:33.937Z,13.93
2022-09-11T10:11:03.996Z,13.98
2022-09-11T10:13:57.568Z,14.04
2022-09-11T10:16:27.991Z,14.15
2022-09-11T10:18:56.591Z,14.30
2022-09-11T10:21:36.719Z,14.40
2022-09-11T10:24:17.560Z,14.56
2022-09-11T10:26:53.634Z,14.64
2022-09-11T10:29:32.562Z,14.73
2022-09-11T10:32:05.944Z,14.82
2022-09-11T10:34:40.780Z,14.98
2022-09-11T10:37:11.893Z,15.16
2022-09-11T10:39:43.190Z,15.06
2022-09-11T10:42:18.235Z,14.93
2022-09-11T10:44:48.696Z,14.97
2022-09-11T10:47:23.635Z,15.07
2022-09-11T10:50:20.414Z,15.10
2022-09-11T10:53:20.624Z,15.05
2022-09-11T10:55:57.952Z,15.07
2022-09-11T10:58:33.660Z,15.31
2022-09-11T11:01:03.006Z,15.42
2022-09-11T11:03:33.927Z,15.38
2022-09-11T11:06:42.877Z,15.37
2022-09-11T11:09:31.099Z,15.37
2022-09-11T11:12:10.057Z,15.39
2022-09-11T11:15:22.059Z,15.45
2022-09-11T11:18:14.262Z,15.58
2022-09-11T11:21:23.031Z,15.61
2022-09-11T11:23:51.992Z,15.52
2022-09-11T11:26:32.025Z,15.52
2022-09-11T11:29:26.579Z,15.59
2022-09-11T11:32:19.859Z,15.67
2022-09-11T11:35:13.134Z,15.78
2022-09-11T11:37:45.049Z,15.92
2022-09-11T11:40:19.459Z,16.00
2022-09-11T11:43:01.859Z,16.01
2022-09-11T11:45:39.343Z,16.04
2022-09-11T11:48:44.570Z,16.03
2022-09-11T11:51:18.476Z,16.01
2022-09-11T11:54:17.623Z,16.06
2022-09-11T11:56:56.837Z,16.15
2022-09-11T11:59:33.587Z,16.19
2022-09-11T12:02:19.005Z,16.28
2022-09-11T12:04:56.240Z,16.28
2022-09-11T12:07:31.972Z,16.25
2022-09-11T12:10:02.172Z,16.14
2022-09-11T12:12:35.075Z,16.11
2022-09-11T12:15:08.633Z,16.09
2022-09-11T12:17:40.526Z,16.04
2022-09-11T12:20:12.477Z,16.02
2022-09-11T12:22:44.746Z,16.07
2022-09-11T12:25:19.505Z,16.11
2022-09-11T12:27:51.144Z,16.03
2022-09-11T12:30:20.556Z,15.98
2022-09-11T12:32:57.393Z,15.92
2022-09-11T12:35:41.904Z,15.89
2022-09-11T12:38:27.018Z,15.93
2022-09-11T12:41:00.074Z,15.97
2022-09-11T12:43:37.929Z,16.01
2022-09-11T12:46:34.835Z,16.03
2022-09-11T12:49:28.284Z,16.06
2022-09-11T12:52:00.614Z,16.20
2022-09-11T12:54:48.513Z,16.32
2022-09-11T12:57:35.487Z,16.36
2022-09-11T13:00:11.951Z,16.31
2022-09-11T13:02:44.283Z,16.25
2022-09-11T13:05:36.683Z,16.13
2022-09-11T13:08:17.535Z,16.01
2022-09-11T13:10:50.895Z,15.92
2022-09-11T13:13:34.930Z,15.84
2022-09-11T13:16:29.607Z,15.78
2022-09-11T13:19:15.059Z,15.70
2022-09-11T13:21:57.076Z,15.60
2022-09-11T13:24:30.401Z,15.54
2022-09-11T13:27:14.294Z,15.50
2022-09-11T13:29:49.933Z,15.55
2022-09-11T13:32:22.713Z,15.71
2022-09-11T13:35:00.310Z,15.88
2022-09-11T13:37:59.944Z,15.96
2022-09-11T13:40:48.863Z,15.96
2022-09-11T13:43:28.260Z,16.00
2022-09-11T13:46:48.993Z,15.91
2022-09-11T13:49:42.969Z,15.82
2022-09-11T13:52:12.965Z,15.78
2022-09-11T13:54:48.369Z,15.70
2022-09-11T13:57:32.232Z,15.71
2022-09-11T14:00:00.931Z,15.69
2022-09-11T14:02:52.814Z,15.74
2022-09-11T14:05:39.735Z,15.93
2022-09-11T14:08:36.235Z,16.17
2022-09-11T14:11:28.480Z,16.38
2022-09-11T14:14:11.997Z,16.60
2022-09-11T14:17:16.889Z,16.71
2022-09-11T14:19:46.719Z,16.77
2022-09-11T14:22:26.148Z,16.77
2022-09-11T14:25:23.765Z,16.71
2022-09-11T14:27:52.742Z,16.61
2022-09-11T14:30:36.964Z,16.52
2022-09-11T14:33:25.322Z,16.38
2022-09-11T14:36:08.072Z,16.29
2022-09-11T14:38:54.172Z,16.27
2022-09-11T14:41:28.902Z,16.29
2022-09-11T14:44:07.492Z,16.31
2022-09-11T14:46:36.119Z,16.36
2022-09-11T14:49:05.079Z,16.37
2022-09-11T14:51:37.861Z,16.34
2022-09-11T14:54:11.035Z,16.36
2022-09-11T14:56:45.244Z,16.35
2022-09-11T14:59:20.728Z,16.33
2022-09-11T15:01:52.473Z,16.25
2022-09-11T15:04:31.649Z,16.24
2022-09-11T15:07:00.136Z,16.20
2022-09-11T15:09:39.658Z,16.13
2022-09-11T15:12:29.648Z,16.13
2022-09-11T15:15:07.522Z,16.13
2022-09-11T15:17:40.278Z,16.14
2022-09-11T15:20:30.529Z,16.11
2022-09-11T15:22:59.514Z,16.11
2022-09-11T15:25:33.722Z,16.10
2022-09-11T15:28:29.808Z,16.09
2022-09-11T15:31:00.191Z,16.10
2022-09-11T15:33:30.735Z,16.08
2022-09-11T15:36:07.040Z,16.05
2022-09-11T15:38:55.892Z,16.06
2022-09-11T15:41:28.322Z,16.06
2022-09-11T15:44:12.969Z,16.05
2022-09-11T15:46:44.919Z,16.05
2022-09-11T15:49:13.212Z,16.09
2022-09-11T15:51:42.004Z,16.16
2022-09-11T15:54:14.604Z,16.23
2022-09-11T15:57:04.341Z,16.25
2022-09-11T15:59:40.319Z,16.29
2022-09-11T16:02:10.885Z,16.31
2022-09-11T16:04:52.949Z,16.31
2022-09-11T16:07:32.428Z,16.32
2022-09-11T16:10:03.839Z,16.34
2022-09-11T16:12:34.019Z,16.35
2022-09-11T16:15:05.783Z,16.39
2022-09-11T16:17:37.666Z,16.42
2022-09-11T16:20:06.485Z,16.44
2022-09-11T16:22:35.079Z,16.45
2022-09-11T16:25:04.106Z,16.49
2022-09-11T16:27:34.876Z,16.51
2022-09-11T16:32:53.189Z,16.46
2022-09-11T16:36:16.993Z,16.45
2022-09-11T16:39:39.140Z,16.48
2022-09-11T16:42:18.130Z,16.42
2022-09-11T16:44:59.877Z,16.41
2022-09-11T16:47:32.466Z,16.41
2022-09-11T16:50:07.429Z,16.40
2022-09-11T16:52:48.821Z,16.33
2022-09-11T16:55:52.330Z,16.29
2022-09-11T16:58:22.218Z,16.24
2022-09-11T17:00:51.334Z,16.19
2022-09-11T17:03:20.320Z,16.14
2022-09-11T17:06:07.099Z,16.13
2022-09-11T17:08:41.900Z,16.12
2022-09-11T17:11:14.602Z,16.07
2022-09-11T17:13:47.040Z,16.04
2022-09-11T17:16:28.358Z,16.02
2022-09-11T17:19:02.473Z,16.01
2022-09-11T17:21:51.401Z,16.03
2022-09-11T17:24:22.079Z,15.99
2022-09-11T17:26:52.990Z,15.92
2022-09-11T17:29:21.453Z,15.87
2022-09-11T17:32:01.126Z,15.81
2022-09-11T17:34:38.947Z,15.77
2022-09-11T17:37:07.371Z,15.75
2022-09-11T17:39:35.970Z,15.77
2022-09-11T17:42:11.026Z,15.75
2022-09-11T17:44:42.099Z,15.70
2022-09-11T17:47:13.111Z,15.63
2022-09-11T17:49:51.017Z,15.55
2022-09-11T17:52:20.558Z,15.49
2022-09-11T17:55:00.007Z,15.42
2022-09-11T17:57:32.638Z,15.39
2022-09-11T18:00:04.202Z,15.35
2022-09-11T18:02:33.006Z,15.33
2022-09-11T18:05:05.296Z,15.31
2022-09-11T18:07:34.914Z,15.29
2022-09-11T18:10:30.343Z,15.26
2022-09-11T18:13:06.181Z,15.24
2022-09-11T18:15:53.714Z,15.23
2022-09-11T18:18:35.003Z,15.18
2022-09-11T18:21:07.119Z,15.13
2022-09-11T18:23:40.696Z,15.08
2022-09-11T18:26:27.445Z,15.04
2022-09-11T18:29:02.443Z,15.00
2022-09-11T18:31:33.176Z,14.98
2022-09-11T18:34:01.653Z,14.95
2022-09-11T18:36:31.803Z,14.92
2022-09-11T18:39:02.531Z,14.90
2022-09-11T18:41:37.458Z,14.89
2022-09-11T18:44:15.089Z,14.87
2022-09-11T18:47:10.207Z,14.86
2022-09-11T18:49:51.327Z,14.85
2022-09-11T18:52:26.176Z,14.80
2022-09-11T18:55:00.047Z,14.76
2022-09-11T18:57:31.608Z,14.72
2022-09-11T19:00:00.573Z,14.70
2022-09-11T19:02:31.691Z,14.70
2022-09-11T19:05:15.811Z,14.70
2022-09-11T19:07:48.551Z,14.69
2022-09-11T19:10:25.803Z,14.65
2022-09-11T19:12:57.814Z,14.64
2022-09-11T19:16:00.773Z,14.66
2022-09-11T19:18:35.223Z,14.65
2022-09-11T19:21:14.263Z,14.64
2022-09-11T19:23:45.400Z,14.63
2022-09-11T19:26:21.201Z,14.57
2022-09-11T19:28:50.702Z,14.54
2022-09-11T19:31:21.689Z,14.51
2022-09-11T19:33:53.403Z,14.43
2022-09-11T19:36:31.775Z,14.35
2022-09-11T19:39:10.568Z,14.30
2022-09-11T19:41:39.922Z,14.27
2022-09-11T19:44:12.489Z,14.24
2022-09-11T19:46:44.335Z,14.20
2022-09-11T19:49:13.164Z,14.15
2022-09-11T19:51:45.496Z,14.13
2022-09-11T19:54:14.919Z,14.09
2022-09-11T19:56:44.760Z,14.09
2022-09-11T19:59:14.700Z,14.09
2022-09-11T20:01:44.645Z,14.08
2022-09-11T20:04:14.269Z,14.10
2022-09-11T20:09:37.253Z,14.17
2022-09-11T20:12:10.705Z,14.18
2022-09-11T20:14:46.238Z,14.21
2022-09-11T20:17:23.021Z,14.22
2022-09-11T20:20:03.533Z,14.21
2022-09-11T20:22:39.067Z,14.20
2022-09-11T20:25:21.188Z,14.19
2022-09-11T20:27:56.803Z,14.18
2022-09-11T20:30:55.471Z,14.18
2022-09-11T20:33:40.961Z,14.17
2022-09-11T20:36:23.956Z,14.16
2022-09-11T20:39:03.641Z,14.14
2022-09-11T20:41:40.310Z,14.12
2022-09-11T20:44:33.735Z,14.11
2022-09-11T20:47:16.243Z,14.12
2022-09-11T20:49:52.557Z,14.13
2022-09-11T20:52:49.908Z,14.13
2022-09-11T20:56:07.623Z,14.14
2022-09-11T20:58:41.781Z,14.12
2022-09-11T21:01:37.901Z,14.12
2022-09-11T21:04:38.649Z,14.11
2022-09-11T21:07:20.032Z,14.11
2022-09-11T21:10:27.915Z,14.09
2022-09-11T21:13:12.154Z,14.08
2022-09-11T21:16:11.606Z,14.05
2022-09-11T21:19:07.115Z,14.02
2022-09-11T21:21:45.536Z,14.01
2022-09-11T21:24:23.816Z,14.01
2022-09-11T21:27:09.407Z,13.98
2022-09-11T21:29:42.773Z,13.98
2022-09-11T21:32:15.247Z,13.98
2022-09-11T21:34:48.169Z,13.98
2022-09-11T21:37:19.121Z,13.99
2022-09-11T21:40:13.243Z,13.97
2022-09-11T21:42:54.202Z,13.95
2022-09-11T21:45:39.813Z,13.95
2022-09-11T21:48:17.378Z,13.96
2022-09-11T21:50:55.365Z,13.94
2022-09-11T21:53:39.701Z,13.91
2022-09-11T21:56:32.572Z,13.91
2022-09-11T21:59:07.840Z,13.92
2022-09-11T22:02:36.181Z,13.92
2022-09-11T22:05:26.640Z,13.89
2022-09-11T22:08:19.693Z,13.88
2022-09-11T22:11:26.517Z,13.88
2022-09-11T22:14:32.249Z,13.87
2022-09-11T22:17:26.238Z,13.86
2022-09-11T22:23:20.471Z,13.79
2022-09-11T22:26:51.123Z,13.76
2022-09-11T22:29:22.615Z,13.73
2022-09-11T22:32:08.618Z,13.71
2022-09-11T22:34:45.179Z,13.68
2022-09-11T22:37:19.701Z,13.65
2022-09-11T22:40:19.606Z,13.61
2022-09-11T22:42:55.190Z,13.57
2022-09-11T22:45:34.635Z,13.54
2022-09-11T22:48:12.807Z,13.50
2022-09-11T22:51:00.672Z,13.46
2022-09-11T22:54:10.881Z,13.41
2022-09-11T22:57:17.936Z,13.38
2022-09-11T22:59:50.591Z,13.35
2022-09-11T23:02:23.505Z,13.34
2022-09-11T23:05:13.815Z,13.34
2022-09-11T23:08:11.242Z,13.35
2022-09-11T23:11:17.249Z,13.35
2022-09-11T23:13:50.849Z,13.35
2022-09-11T23:16:50.592Z,13.33
2022-09-11T23:19:33.479Z,13.31
2022-09-11T23:22:02.583Z,13.29
2022-09-11T23:25:08.260Z,13.27
2022-09-11T23:27:44.231Z,13.23
2022-09-11T23:30:18.623Z,13.20
2022-09-11T23:32:58.150Z,13.17
2022-09-11T23:35:42.083Z,13.15
2022-09-11T23:38:21.219Z,13.14
2022-09-11T23:41:18.600Z,13.12
2022-09-11T23:44:27.258Z,13.09
2022-09-11T23:47:08.934Z,13.08
2022-09-11T23:49:40.401Z,13.05
2022-09-11T23:52:20.094Z,13.03
2022-09-11T23:55:02.279Z,13.02
2022-09-11T23:57:54.033Z,12.99
